Time;durP1;ratioP1;P1;durP2;ratioP2;P2;SDS_P1;SDS_P2;PMS_P1;PMS_P2;Temp;Humidity;BMP_temperature;BMP_pressure;BME280_temperature;BME280_humidity;BME280_pressure;Samples;Min_cycle;Max_cycle;Signal;HPM_P1;HPM_P2
2023/06/22 00:00:21;;;;;;;18.50;4.80;;;;;;;22.01;74.83;100285.69;5040947;28;20838;-59
2023/06/22 00:02:51;;;;;;;12.53;4.10;;;;;;;22.19;73.15;100284.53;5030414;28;20283;-59
2023/06/22 00:05:22;;;;;;;10.17;4.33;;;;;;;22.40;71.80;100293.81;5040843;28;20300;-58
2023/06/22 00:07:52;;;;;;;11.23;3.97;;;;;;;22.52;71.94;100291.31;5030685;28;20180;-59
2023/06/22 00:10:23;;;;;;;17.23;3.90;;;;;;;22.70;70.95;100279.41;5040332;28;20131;-59
2023/06/22 00:12:55;;;;;;;12.10;4.20;;;;;;;22.73;69.81;100271.22;5030170;28;20061;-59
2023/06/22 00:15:26;;;;;;;18.37;4.63;;;;;;;22.99;71.19;100284.66;5040526;28;20056;-59
2023/06/22 00:17:57;;;;;;;15.90;4.23;;;;;;;23.06;70.49;100285.06;5029594;28;20036;-60
2023/06/22 00:20:29;;;;;;;13.63;4.27;;;;;;;23.20;70.25;100283.16;5040490;28;20051;-59
2023/06/22 00:23:01;;;;;;;20.60;5.80;;;;;;;23.24;69.02;100279.34;5029955;28;20048;-58
2023/06/22 00:25:32;;;;;;;19.83;5.60;;;;;;;23.28;68.77;100289.78;5039700;28;20148;-58
2023/06/22 00:28:04;;;;;;;18.10;5.93;;;;;;;23.31;68.19;100268.25;5030227;28;20048;-59
2023/06/22 00:30:35;;;;;;;21.63;5.30;;;;;;;23.13;68.53;100265.88;5031979;28;20057;-58
2023/06/22 00:33:07;;;;;;;25.17;5.53;;;;;;;23.56;68.36;100284.22;5040183;28;20060;-58
2023/06/22 00:35:41;;;;;;;23.40;6.33;;;;;;;23.73;67.72;100279.56;5029397;28;20068;-58
2023/06/22 00:38:12;;;;;;;11.33;4.23;;;;;;;23.88;67.76;100279.31;5039775;28;20045;-59
2023/06/22 00:40:42;;;;;;;16.10;4.43;;;;;;;24.09;65.47;100273.41;5029531;28;20066;-60
2023/06/22 00:43:14;;;;;;;19.40;5.40;;;;;;;23.90;65.26;100273.88;5039133;28;20076;-59
2023/06/22 00:45:45;;;;;;;9.63;4.50;;;;;;;23.84;63.09;100272.50;5027677;28;20167;-58
2023/06/22 00:48:16;;;;;;;6.57;3.63;;;;;;;23.87;64.20;100271.44;5039428;28;20060;-58
2023/06/22 00:50:50;;;;;;;13.77;5.63;;;;;;;24.21;64.78;100268.97;5029403;28;20499;-58
2023/06/22 00:53:21;;;;;;;10.73;4.13;;;;;;;24.36;62.71;100266.97;5039692;28;20139;-59
2023/06/22 00:55:52;;;;;;;20.10;3.80;;;;;;;24.45;62.17;100272.53;5029673;28;20491;-59
2023/06/22 00:58:25;;;;;;;11.97;3.80;;;;;;;24.43;62.27;100273.59;5039124;28;20135;-58
2023/06/22 01:00:55;;;;;;;7.80;4.27;;;;;;;24.60;61.13;100265.19;5030319;28;20079;-59
2023/06/22 01:03:26;;;;;;;9.93;4.23;;;;;;;24.45;58.90;100235.13;5039929;28;20099;-58
2023/06/22 01:06:03;;;;;;;11.83;3.47;;;;;;;24.81;59.74;100267.22;5029007;28;20391;-58
2023/06/22 01:08:42;;;;;;;10.07;3.87;;;;;;;25.03;59.40;100271.78;5033314;28;20040;-58
2023/06/22 01:11:17;;;;;;;8.18;3.38;;;;;;;24.90;55.81;100256.69;5039692;28;20079;-58
2023/06/22 01:13:56;;;;;;;11.00;3.57;;;;;;;24.70;55.16;100257.34;5028976;28;20056;-58
2023/06/22 01:16:31;;;;;;;13.37;3.33;;;;;;;24.63;57.48;100248.09;5039436;28;20056;-59
2023/06/22 01:19:11;;;;;;;8.57;3.23;;;;;;;24.57;56.76;100216.50;5010230;28;20044;-59
2023/06/22 01:21:41;;;;;;;7.93;3.20;;;;;;;24.80;55.64;100239.66;5036737;28;20538;-58
2023/06/22 01:24:23;;;;;;;12.17;3.60;;;;;;;24.81;55.63;100241.38;5039021;28;20048;-58
2023/06/22 01:27:05;;;;;;;7.60;3.77;;;;;;;24.68;59.19;100245.91;5028483;28;20065;-59
2023/06/22 01:29:40;;;;;;;17.67;5.00;;;;;;;24.63;60.90;100242.75;5028817;28;20053;-58
2023/06/22 01:32:11;;;;;;;8.47;3.57;;;;;;;24.56;61.67;100241.50;5038943;28;20060;-58
2023/06/22 01:34:44;;;;;;;12.20;3.47;;;;;;;24.51;60.51;100234.69;5028417;28;20072;-58
2023/06/22 01:37:15;;;;;;;12.93;4.57;;;;;;;24.52;63.50;100241.72;5038800;28;20067;-59
2023/06/22 01:39:46;;;;;;;9.53;3.67;;;;;;;24.25;63.82;100241.09;5029030;28;20070;-58
2023/06/22 01:42:17;;;;;;;14.20;3.90;;;;;;;24.26;65.14;100245.44;5038542;28;20118;-58
2023/06/22 01:44:50;;;;;;;13.60;3.43;;;;;;;24.11;62.80;100237.63;5028604;28;20478;-59
2023/06/22 01:47:21;;;;;;;6.67;3.43;;;;;;;23.86;65.21;100237.69;5038783;28;20052;-59
2023/06/22 01:49:52;;;;;;;10.83;3.40;;;;;;;23.84;66.31;100234.31;5027940;28;20076;-59
2023/06/22 01:52:23;;;;;;;7.43;3.10;;;;;;;23.63;66.16;100194.81;5038961;28;20076;-58
2023/06/22 01:54:54;;;;;;;9.63;3.57;;;;;;;23.77;68.27;100230.38;5029104;28;22082;-60
2023/06/22 01:57:24;;;;;;;10.40;3.27;;;;;;;23.51;67.65;100233.03;5039480;28;20082;-60
2023/06/22 02:00:03;;;;;;;8.90;3.20;;;;;;;23.51;67.02;100233.03;5028746;28;20071;-57
2023/06/22 02:02:40;;;;;;;5.00;3.40;;;;;;;23.33;68.32;100223.66;5035378;28;20487;-58
2023/06/22 02:05:13;;;;;;;16.63;3.30;;;;;;;22.95;68.20;100203.16;5042799;28;20569;-58
2023/06/22 02:07:48;;;;;;;11.60;3.40;;;;;;;22.78;67.23;100239.78;5032453;28;20151;-59
2023/06/22 02:10:20;;;;;;;9.10;3.80;;;;;;;22.65;68.48;100230.09;5042530;28;20049;-58
2023/06/22 02:12:52;;;;;;;13.00;3.40;;;;;;;22.46;67.05;100195.84;5032725;28;20094;-58
2023/06/22 02:15:24;;;;;;;13.23;3.53;;;;;;;22.61;67.64;100240.06;5042309;28;20078;-59
2023/06/22 02:17:55;;;;;;;16.70;3.73;;;;;;;22.73;68.98;100230.41;5031450;28;20044;-59
2023/06/22 02:20:26;;;;;;;19.60;3.60;;;;;;;22.92;67.08;100230.88;5042998;28;20041;-59
2023/06/22 02:22:57;;;;;;;15.57;3.47;;;;;;;22.77;67.20;100243.44;5032087;28;20148;-58
2023/06/22 02:25:28;;;;;;;10.63;3.07;;;;;;;22.62;67.89;100233.81;5042253;28;20055;-58
2023/06/22 02:27:58;;;;;;;15.17;3.47;;;;;;;22.50;68.66;100238.13;5032618;28;20144;-59
2023/06/22 02:30:34;;;;;;;10.30;3.60;;;;;;;22.57;66.95;100241.25;5042156;28;20076;-57
2023/06/22 02:33:04;;;;;;;20.67;3.50;;;;;;;22.60;68.45;100246.38;5032303;28;20171;-57
2023/06/22 02:35:35;;;;;;;14.23;4.27;;;;;;;22.73;66.82;100241.91;5032587;28;20055;-58
2023/06/22 02:38:06;;;;;;;17.90;3.33;;;;;;;22.54;66.26;100204.16;5042353;28;20110;-57
2023/06/22 02:40:36;;;;;;;9.20;3.60;;;;;;;22.53;66.08;100234.41;5032064;28;20110;-58
2023/06/22 02:43:07;;;;;;;13.53;3.40;;;;;;;22.52;65.77;100243.38;5042857;28;20055;-58
2023/06/22 02:45:39;;;;;;;9.27;3.53;;;;;;;22.48;67.19;100237.38;5031415;28;20063;-59
2023/06/22 02:48:09;;;;;;;10.33;3.50;;;;;;;22.33;68.02;100233.94;5041941;28;20060;-58
2023/06/22 02:50:40;;;;;;;9.57;3.60;;;;;;;22.25;67.02;100233.59;5031299;28;20066;-57
2023/06/22 02:53:10;;;;;;;15.77;4.17;;;;;;;22.49;68.97;100227.59;5042041;28;20044;-58
2023/06/22 02:55:41;;;;;;;13.37;3.50;;;;;;;22.52;65.78;100238.91;5031032;28;20275;-61
2023/06/22 02:58:11;;;;;;;4.37;3.17;;;;;;;22.39;65.29;100244.19;5042064;28;20072;-57
2023/06/22 03:00:44;;;;;;;13.07;4.20;;;;;;;22.50;65.78;100239.97;5031642;28;20144;-59
2023/06/22 03:03:14;;;;;;;10.50;3.40;;;;;;;22.43;67.49;100228.00;5042075;28;20106;-59
2023/06/22 03:05:45;;;;;;;9.30;3.10;;;;;;;22.45;67.10;100247.41;5030801;28;20932;-61
2023/06/22 03:08:16;;;;;;;12.13;3.70;;;;;;;22.47;67.74;100241.00;5041621;28;20462;-62
2023/06/22 03:10:46;;;;;;;13.10;3.40;;;;;;;22.58;66.12;100245.63;5031093;28;20151;-59
2023/06/22 03:13:17;;;;;;;11.90;3.63;;;;;;;22.42;65.42;100252.94;5046847;28;20053;-62
2023/06/22 03:15:49;;;;;;;8.90;3.27;;;;;;;22.16;66.96;100242.13;5010863;28;20198;-60
2023/06/22 03:18:22;;;;;;;13.10;2.97;;;;;;;22.18;68.38;100261.50;5020734;28;20052;-64
2023/06/22 03:20:53;;;;;;;12.63;3.13;;;;;;;22.03;66.18;100251.88;5009934;28;20326;-60
2023/06/22 03:23:24;;;;;;;10.37;2.77;;;;;;;22.09;66.23;100254.13;5020786;28;20052;-60
2023/06/22 03:25:55;;;;;;;9.93;2.93;;;;;;;22.26;68.43;100253.06;5010351;28;20054;-59
2023/06/22 03:28:26;;;;;;;8.83;3.10;;;;;;;22.39;66.79;100249.50;5021519;28;20041;-60
2023/06/22 03:30:59;;;;;;;8.93;3.43;;;;;;;22.31;66.48;100251.78;5011135;28;20283;-60
2023/06/22 03:33:30;;;;;;;7.90;2.90;;;;;;;22.21;64.79;100250.69;5020541;28;20065;-58
2023/06/22 03:36:00;;;;;;;20.77;3.00;;;;;;;22.18;67.48;100250.88;5010671;28;20152;-60
2023/06/22 03:38:31;;;;;;;11.57;3.97;;;;;;;22.22;65.82;100236.44;5020703;28;20147;-60
2023/06/22 03:41:01;;;;;;;12.23;2.90;;;;;;;22.38;65.86;100247.78;5010170;28;20283;-64
2023/06/22 03:43:32;;;;;;;14.07;2.70;;;;;;;22.19;65.41;100247.28;5020515;28;20168;-59
2023/06/22 03:46:04;;;;;;;8.77;3.17;;;;;;;22.31;67.67;100251.78;5003911;28;20049;-59
2023/06/22 03:48:35;;;;;;;12.27;3.23;;;;;;;22.33;67.26;100252.56;5012636;28;20135;-59
2023/06/22 03:51:05;;;;;;;18.00;2.97;;;;;;;22.09;65.89;100243.47;5021047;28;20048;-61
2023/06/22 03:53:36;;;;;;;16.53;3.37;;;;;;;22.05;66.10;100249.97;5010010;28;20055;-61
2023/06/22 03:56:06;;;;;;;7.50;2.73;;;;;;;21.98;64.40;100260.97;5021116;28;20052;-60
2023/06/22 03:58:42;;;;;;;15.67;3.33;;;;;;;21.91;65.54;100259.66;5010018;28;20073;-60
2023/06/22 04:01:16;;;;;;;16.63;3.20;;;;;;;21.94;65.57;100261.28;5020879;28;20049;-60
2023/06/22 04:03:49;;;;;;;19.67;3.10;;;;;;;21.74;66.45;100262.53;5009810;28;20314;-60
2023/06/22 04:06:20;;;;;;;18.50;3.70;;;;;;;21.50;66.68;100228.56;5019767;28;20430;-60
2023/06/22 04:08:51;;;;;;;9.97;3.50;;;;;;;21.60;64.22;100217.38;5009783;28;20287;-60
2023/06/22 04:11:22;;;;;;;13.03;3.20;;;;;;;21.64;66.26;100261.41;5020240;28;20319;-61
2023/06/22 04:13:53;;;;;;;14.83;3.00;;;;;;;21.69;67.32;100275.25;5018442;28;20373;-62
2023/06/22 04:16:25;;;;;;;22.97;3.77;;;;;;;21.65;65.69;100257.81;5040437;28;20790;-61
2023/06/22 04:18:56;;;;;;;15.87;3.23;;;;;;;21.56;64.75;100279.66;5030725;28;20373;-60
2023/06/22 04:21:26;;;;;;;13.67;3.60;;;;;;;21.42;66.57;100273.38;5039836;28;20283;-62
2023/06/22 04:23:57;;;;;;;17.27;3.60;;;;;;;21.40;65.66;100285.06;5030449;28;20293;-62
2023/06/22 04:26:27;;;;;;;11.23;3.33;;;;;;;21.40;64.36;100279.75;5040065;28;20378;-60
2023/06/22 04:28:58;;;;;;;17.40;3.43;;;;;;;21.22;65.82;100276.38;5029763;28;20294;-62
2023/06/22 04:31:31;;;;;;;13.57;3.60;;;;;;;21.19;66.16;100273.88;5039503;28;21102;-60
2023/06/22 04:34:06;;;;;;;13.60;3.50;;;;;;;21.20;65.74;100278.28;5030275;28;20279;-63
2023/06/22 04:36:38;;;;;;;8.63;3.27;;;;;;;21.32;66.90;100272.22;5029029;28;21038;-61
2023/06/22 04:39:10;;;;;;;16.43;3.63;;;;;;;21.33;65.66;100279.22;5039516;28;20295;-64
2023/06/22 04:41:43;;;;;;;9.10;3.23;;;;;;;21.05;64.39;100238.38;5029052;28;20297;-60
2023/06/22 04:44:23;;;;;;;13.57;4.10;;;;;;;20.66;66.43;100178.72;5039737;28;20289;-62
2023/06/22 04:47:00;;;;;;;11.57;4.13;;;;;;;21.27;65.44;100274.28;5029274;28;20667;-62
2023/06/22 04:49:34;;;;;;;9.13;3.80;;;;;;;21.23;65.51;100280.72;5031916;28;20394;-60
2023/06/22 04:52:06;;;;;;;5.60;3.83;;;;;;;21.27;64.68;100284.94;5027932;28;20287;-62
2023/06/22 04:54:38;;;;;;;9.43;3.60;;;;;;;21.45;65.90;100289.13;5025968;28;20307;-61
2023/06/22 04:57:10;;;;;;;11.10;3.40;;;;;;;21.45;65.35;100283.81;5037474;28;20378;-60
2023/06/22 04:59:41;;;;;;;11.33;3.40;;;;;;;21.32;64.50;100289.00;5027561;28;20283;-60
2023/06/22 05:02:13;;;;;;;9.27;4.03;;;;;;;21.30;64.99;100287.38;5037763;28;20282;-61
2023/06/22 05:04:44;;;;;;;10.37;4.00;;;;;;;21.35;65.11;100287.13;5027684;28;20279;-63
2023/06/22 05:07:14;;;;;;;15.10;3.80;;;;;;;21.18;65.32;100277.50;5037490;28;20287;-62
2023/06/22 05:09:45;;;;;;;12.00;3.87;;;;;;;21.24;65.63;100291.28;5027600;28;20297;-59
2023/06/22 05:12:15;;;;;;;11.40;3.70;;;;;;;21.21;65.04;100279.97;5036842;28;21486;-63
2023/06/22 05:14:46;;;;;;;15.40;4.10;;;;;;;21.20;66.71;100278.28;5026891;28;20298;-60
2023/06/22 05:17:19;;;;;;;11.13;3.77;;;;;;;21.26;64.68;100272.56;5037523;28;20294;-61
2023/06/22 05:19:49;;;;;;;7.63;3.60;;;;;;;21.10;65.03;100257.56;5026771;28;20314;-62
2023/06/22 05:22:20;;;;;;;7.93;3.87;;;;;;;21.25;64.96;100270.88;5037187;28;20283;-60
2023/06/22 05:24:50;;;;;;;8.50;3.97;;;;;;;21.20;65.86;100288.91;5027539;28;20297;-63
2023/06/22 05:27:22;;;;;;;8.07;3.37;;;;;;;20.84;65.97;100260.91;5034184;28;20286;-61
2023/06/22 05:29:53;;;;;;;11.47;3.70;;;;;;;20.98;65.31;100284.00;5025916;28;20290;-64
2023/06/22 05:32:25;;;;;;;14.60;3.83;;;;;;;20.88;64.72;100289.84;5037242;28;20749;-62
2023/06/22 05:34:56;;;;;;;10.83;4.20;;;;;;;20.98;67.58;100279.53;5027224;28;20318;-64
2023/06/22 05:37:27;;;;;;;12.73;3.30;;;;;;;21.20;65.02;100283.59;5037269;28;20314;-62
2023/06/22 05:39:57;;;;;;;10.63;3.90;;;;;;;21.17;67.20;100289.06;5028023;28;20835;-61
2023/06/22 05:42:28;;;;;;;9.40;3.83;;;;;;;20.97;66.83;100288.47;5037510;28;20344;-61
2023/06/22 05:44:58;;;;;;;9.90;3.73;;;;;;;20.81;65.42;100288.50;5027338;28;20363;-63
2023/06/22 05:47:31;;;;;;;8.93;3.73;;;;;;;20.64;66.54;100281.53;5037881;28;20995;-63
2023/06/22 05:50:06;;;;;;;8.10;3.70;;;;;;;20.78;66.83;100282.53;5026970;28;20394;-62
2023/06/22 05:52:37;;;;;;;9.10;3.60;;;;;;;20.92;67.21;100285.22;5026727;28;20283;-61
2023/06/22 05:55:08;;;;;;;6.40;3.57;;;;;;;20.89;65.42;100285.38;5038419;28;20294;-61
2023/06/22 05:57:39;;;;;;;11.87;4.17;;;;;;;20.94;65.95;100288.63;5027431;28;20298;-62
2023/06/22 06:00:12;;;;;;;14.47;4.40;;;;;;;21.07;65.96;100286.13;5037613;28;20283;-60
2023/06/22 06:02:45;;;;;;;21.33;4.30;;;;;;;21.11;65.78;100288.47;5026499;28;20287;-60
2023/06/22 06:05:15;;;;;;;10.80;4.57;;;;;;;21.17;66.04;100284.63;5037026;28;20386;-61
2023/06/22 06:07:47;;;;;;;12.03;4.43;;;;;;;21.10;66.69;100284.13;5026388;28;20270;-62
2023/06/22 06:10:18;;;;;;;16.90;4.10;;;;;;;20.95;65.83;100274.41;5037197;28;20374;-62
2023/06/22 06:12:48;;;;;;;12.17;3.83;;;;;;;21.08;65.92;100280.69;5026621;28;20306;-62
2023/06/22 06:15:19;;;;;;;20.00;4.40;;;;;;;21.04;66.36;100284.50;5017683;28;20290;-61
2023/06/22 06:17:53;;;;;;;11.67;3.77;;;;;;;20.95;66.96;100270.91;5007001;28;20327;-62
2023/06/22 06:20:24;;;;;;;8.93;3.60;;;;;;;20.86;64.73;100264.31;5017938;28;20296;-62
2023/06/22 06:22:55;;;;;;;12.20;3.77;;;;;;;20.84;65.87;100276.84;5007683;28;20279;-61
2023/06/22 06:25:26;;;;;;;9.00;3.60;;;;;;;20.92;65.51;100273.72;5017961;28;20813;-61
2023/06/22 06:27:56;;;;;;;8.13;3.67;;;;;;;20.83;64.77;100272.47;5007830;28;20284;-60
2023/06/22 06:30:27;;;;;;;6.20;3.60;;;;;;;20.65;65.19;100277.91;5017231;28;20364;-62
2023/06/22 06:33:00;;;;;;;6.67;3.60;;;;;;;20.61;66.75;100273.72;5007073;28;20320;-61
2023/06/22 06:35:31;;;;;;;6.67;4.10;;;;;;;20.75;66.62;100277.41;5018000;28;20341;-63
2023/06/22 06:38:02;;;;;;;21.43;4.40;;;;;;;20.79;66.73;100284.22;5001390;28;20271;-63
2023/06/22 06:40:32;;;;;;;12.33;4.00;;;;;;;20.68;66.41;100277.75;5007595;28;20385;-63
2023/06/22 06:43:03;;;;;;;10.43;4.20;;;;;;;20.55;67.64;100276.75;5027137;28;20279;-61
2023/06/22 06:45:34;;;;;;;11.27;4.03;;;;;;;20.61;68.15;100289.66;5031220;28;20666;-62
2023/06/22 06:48:07;;;;;;;11.33;4.17;;;;;;;20.39;67.41;100289.13;5037378;28;20287;-63
2023/06/22 06:50:37;;;;;;;19.80;3.97;;;;;;;20.43;68.28;100299.50;5029701;28;20295;-61
2023/06/22 06:53:08;;;;;;;11.10;3.77;;;;;;;20.45;67.18;100291.47;5041163;28;20291;-62
2023/06/22 06:55:38;;;;;;;15.20;4.17;;;;;;;20.16;67.00;100279.81;5030230;28;20362;-63
2023/06/22 06:58:11;;;;;;;10.40;3.80;;;;;;;20.26;68.15;100297.78;5041185;28;20297;-62
2023/06/22 07:00:43;;;;;;;10.13;3.67;;;;;;;20.14;66.91;100292.31;5029921;28;20298;-61
2023/06/22 07:03:15;;;;;;;13.13;4.23;;;;;;;19.90;67.62;100273.34;5040448;28;20460;-63
2023/06/22 07:05:46;;;;;;;11.40;4.00;;;;;;;19.97;67.32;100312.69;5030211;28;20381;-63
2023/06/22 07:08:16;;;;;;;9.60;3.90;;;;;;;19.96;68.00;100305.66;5040349;28;20287;-65
2023/06/22 07:10:47;;;;;;;14.60;4.30;;;;;;;19.93;68.02;100302.31;5029560;28;20271;-61
2023/06/22 07:13:17;;;;;;;7.00;3.80;;;;;;;19.89;68.11;100298.13;5039079;28;20824;-64
2023/06/22 07:15:48;;;;;;;16.63;4.23;;;;;;;19.86;68.40;100298.28;5028701;28;20294;-64
2023/06/22 07:18:20;;;;;;;15.40;4.27;;;;;;;19.82;68.59;100298.47;5039659;28;20322;-63
2023/06/22 07:20:50;;;;;;;8.50;3.90;;;;;;;19.78;68.48;100302.22;5029454;28;20373;-62
2023/06/22 07:23:22;;;;;;;8.20;3.87;;;;;;;19.51;68.49;100304.50;5039704;28;20753;-64
2023/06/22 07:25:52;;;;;;;7.63;3.40;;;;;;;19.30;69.04;100300.34;5027808;28;20745;-63
2023/06/22 07:28:23;;;;;;;12.50;4.00;;;;;;;19.18;69.76;100315.91;5041399;28;20372;-64
2023/06/22 07:30:53;;;;;;;14.80;3.97;;;;;;;18.92;70.21;100317.25;5031225;28;20824;-63
2023/06/22 07:33:25;;;;;;;13.23;3.97;;;;;;;18.69;70.63;100320.13;5041023;28;20795;-63
2023/06/22 07:35:56;;;;;;;14.10;4.13;;;;;;;18.71;71.75;100318.28;5030841;28;20289;-62
2023/06/22 07:38:27;;;;;;;18.70;4.30;;;;;;;18.42;71.67;100270.31;5041391;28;20350;-65
2023/06/22 07:40:57;;;;;;;11.20;4.20;;;;;;;18.72;71.90;100320.88;5030324;28;20329;-63
2023/06/22 07:43:29;;;;;;;17.03;4.10;;;;;;;18.70;71.38;100300.69;5040879;28;20290;-63
2023/06/22 07:46:00;;;;;;;4.60;3.27;;;;;;;18.85;71.45;100323.78;5031040;28;20559;-63
2023/06/22 07:48:32;;;;;;;10.03;4.00;;;;;;;18.58;71.43;100327.75;5040979;28;20367;-61
2023/06/22 07:51:03;;;;;;;11.03;3.63;;;;;;;18.50;71.78;100330.78;5030315;28;20283;-64
2023/06/22 07:53:34;;;;;;;6.00;3.07;;;;;;;18.58;71.90;100333.91;5038856;28;20660;-66
2023/06/22 07:56:06;;;;;;;4.67;3.60;;;;;;;18.50;71.75;100331.63;5040611;28;20283;-62
2023/06/22 07:58:37;;;;;;;7.17;3.73;;;;;;;18.42;71.93;100330.28;5030240;28;20807;-64
2023/06/22 08:01:07;;;;;;;6.13;3.40;;;;;;;18.46;72.29;100329.19;5040164;28;20283;-61
2023/06/22 08:03:40;;;;;;;12.60;3.80;;;;;;;18.49;72.34;100329.91;5027400;28;20290;-64
2023/06/22 08:06:12;;;;;;;5.60;3.47;;;;;;;18.48;71.67;100322.91;5040720;28;20305;-63
2023/06/22 08:08:42;;;;;;;9.47;3.70;;;;;;;18.48;72.51;100328.19;5029837;28;20777;-62
2023/06/22 08:11:13;;;;;;;15.07;4.30;;;;;;;18.40;72.20;100335.66;5040537;28;20290;-63
2023/06/22 08:13:44;;;;;;;14.43;3.43;;;;;;;18.32;72.03;100321.91;5029632;28;20336;-63
2023/06/22 08:16:14;;;;;;;11.97;3.90;;;;;;;18.08;72.58;100330.06;5040384;28;20301;-63
2023/06/22 08:18:46;;;;;;;7.57;3.40;;;;;;;17.99;73.10;100335.78;5030275;28;20303;-62
2023/06/22 08:21:17;;;;;;;19.90;3.40;;;;;;;17.91;73.41;100331.78;5039878;28;20731;-62
2023/06/22 08:23:47;;;;;;;8.33;3.60;;;;;;;17.78;73.63;100326.16;5030127;28;20390;-63
2023/06/22 08:26:18;;;;;;;10.50;3.30;;;;;;;17.72;74.44;100329.06;5039988;28;20626;-61
2023/06/22 08:28:48;;;;;;;5.10;3.10;;;;;;;17.58;74.79;100330.56;5029697;28;20328;-62
2023/06/22 08:31:19;;;;;;;9.67;3.30;;;;;;;17.48;75.65;100333.69;5040490;28;20376;-62
2023/06/22 08:33:51;;;;;;;10.43;3.60;;;;;;;17.31;76.20;100337.06;5029164;28;20287;-62
2023/06/22 08:36:22;;;;;;;9.17;3.07;;;;;;;17.22;76.39;100333.88;5038572;28;20633;-62
2023/06/22 08:38:53;;;;;;;6.20;3.10;;;;;;;17.24;76.55;100337.28;5029120;28;20352;-62
2023/06/22 08:41:25;;;;;;;16.53;3.53;;;;;;;17.27;76.95;100340.72;5039735;28;20398;-62
2023/06/22 08:43:55;;;;;;;13.03;4.07;;;;;;;17.46;76.31;100352.22;5028056;28;20285;-62
2023/06/22 08:46:30;;;;;;;13.17;3.63;;;;;;;17.60;75.72;100349.84;5039943;28;20279;-63
2023/06/22 08:49:02;;;;;;;8.97;2.83;;;;;;;17.44;75.14;100354.06;5029463;28;21040;-62
2023/06/22 08:51:34;;;;;;;12.03;3.03;;;;;;;17.28;75.43;100355.69;5030706;28;20291;-62
2023/06/22 08:54:05;;;;;;;14.17;3.10;;;;;;;17.15;75.55;100364.13;5039040;28;20281;-63
2023/06/22 08:56:35;;;;;;;10.40;3.63;;;;;;;17.04;76.30;100361.03;5029175;28;20279;-62
2023/06/22 08:59:07;;;;;;;8.80;3.43;;;;;;;17.03;76.81;100367.25;5039671;28;20295;-61
2023/06/22 09:01:38;;;;;;;8.13;3.10;;;;;;;17.01;76.65;100377.03;5028879;28;20787;-61
2023/06/22 09:04:21;;;;;;;12.40;3.30;;;;;;;17.05;76.85;100368.06;5039574;28;20613;-61
2023/06/22 09:06:55;;;;;;;7.00;3.27;;;;;;;17.03;77.21;100369.91;5029456;28;20661;-64
2023/06/22 09:09:27;;;;;;;9.27;3.30;;;;;;;16.87;77.46;100368.78;5038849;28;20287;-63
2023/06/22 09:11:58;;;;;;;5.50;3.37;;;;;;;16.80;77.49;100368.22;5025416;28;20275;-61
2023/06/22 09:14:29;;;;;;;7.63;3.67;;;;;;;16.65;78.20;100369.66;5036580;28;20289;-60
2023/06/22 09:17:00;;;;;;;10.60;3.00;;;;;;;16.59;78.83;100380.44;5026620;28;20290;-60
2023/06/22 09:19:33;;;;;;;5.83;3.40;;;;;;;16.43;79.53;100381.97;5037950;28;20313;-62
2023/06/22 09:22:08;;;;;;;19.53;4.53;;;;;;;16.43;80.11;100381.97;5026877;28;20290;-62
2023/06/22 09:24:40;;;;;;;11.20;3.33;;;;;;;16.51;80.40;100387.78;5017701;28;20932;-62
2023/06/22 09:27:11;;;;;;;11.87;3.53;;;;;;;16.35;80.56;100388.38;5037301;28;20374;-60
2023/06/22 09:29:43;;;;;;;9.83;3.17;;;;;;;16.25;81.18;100392.28;5027173;28;20286;-60
2023/06/22 09:32:14;;;;;;;12.97;3.60;;;;;;;16.18;81.69;100388.16;5037365;28;20283;-61
2023/06/22 09:34:48;;;;;;;10.80;3.77;;;;;;;15.65;82.20;100322.44;5028487;28;20286;-60
2023/06/22 09:37:22;;;;;;;17.10;4.30;;;;;;;15.81;82.54;100386.03;5038776;28;20364;-61
2023/06/22 09:40:01;;;;;;;11.80;3.77;;;;;;;15.66;83.73;100387.38;5042313;28;20770;-61
2023/06/22 09:42:47;;;;;;;12.97;4.00;;;;;;;15.64;83.95;100394.47;5040468;28;20306;-61
2023/06/22 09:45:19;;;;;;;13.57;3.97;;;;;;;15.62;84.20;100396.31;5039072;28;20313;-59
2023/06/22 09:47:50;;;;;;;13.97;4.30;;;;;;;15.52;84.33;100396.66;5027841;28;20778;-61
2023/06/22 09:50:23;;;;;;;12.57;4.27;;;;;;;15.14;84.59;100383.91;5038359;28;20291;-62
2023/06/22 09:52:56;;;;;;;13.83;3.77;;;;;;;14.96;85.78;100398.53;5027709;28;20285;-62
2023/06/22 09:55:27;;;;;;;16.53;3.93;;;;;;;14.53;86.92;100360.41;5038594;28;20287;-61
2023/06/22 10:01:09;;;;;;;18.20;5.13;;;;;;;14.48;88.61;100394.72;5026867;28;20772;-61
2023/06/22 10:03:56;;;;;;;16.30;5.03;;;;;;;14.37;90.17;100391.56;5018521;28;20852;-63
2023/06/22 10:06:30;;;;;;;11.70;4.93;;;;;;;14.19;90.30;100398.22;5038603;28;20286;-63
2023/06/22 10:09:22;;;;;;;14.97;5.37;;;;;;;14.07;91.31;100399.44;5027993;28;20836;-62
2023/06/22 10:12:07;;;;;;;15.57;5.20;;;;;;;13.84;92.34;100380.84;5024997;28;20290;-60
2023/06/22 10:14:39;;;;;;;12.30;5.60;;;;;;;13.91;92.55;100398.16;5026947;28;20761;-61
2023/06/22 10:17:11;;;;;;;14.23;5.87;;;;;;;13.73;93.05;100395.13;5038075;28;20313;-61
2023/06/22 10:19:42;;;;;;;17.53;4.63;;;;;;;13.62;93.56;100399.78;5027780;28;20337;-61
2023/06/22 10:22:16;;;;;;;11.87;4.80;;;;;;;13.54;94.18;100401.78;5037293;28;20317;-61
2023/06/22 10:24:48;;;;;;;10.10;4.80;;;;;;;13.46;94.38;100411.63;5029738;28;20283;-61
2023/06/22 10:27:20;;;;;;;9.17;5.20;;;;;;;13.32;94.64;100409.34;5041497;28;20294;-61
2023/06/22 10:29:51;;;;;;;10.68;5.95;;;;;;;13.13;95.22;100408.91;5031640;28;20844;-60
2023/06/22 10:32:22;;;;;;;10.38;5.63;;;;;;;12.99;95.53;100405.75;5041942;28;20083;-61
2023/06/22 10:34:54;;;;;;;8.25;5.38;;;;;;;12.93;96.77;100418.13;5031168;28;20069;-61
2023/06/22 10:37:31;;;;;;;13.20;6.80;;;;;;;12.82;96.94;100425.34;5041878;28;20151;-59
2023/06/22 10:40:04;;;;;;;19.13;7.43;;;;;;;12.67;97.30;100421.31;5032104;28;20538;-63
2023/06/22 10:42:35;;;;;;;11.60;7.20;;;;;;;12.64;98.41;100438.91;5031137;28;20147;-61
2023/06/22 10:45:09;;;;;;;16.42;6.53;;;;;;;12.63;98.90;100439.78;5041356;28;20475;-60
2023/06/22 10:47:41;;;;;;;16.92;6.60;;;;;;;12.57;98.72;100443.41;5030890;28;20056;-61
2023/06/22 10:50:14;;;;;;;11.23;6.65;;;;;;;12.40;99.29;100433.25;5041294;28;20041;-62
2023/06/22 10:52:47;;;;;;;9.95;6.10;;;;;;;12.44;100.00;100444.56;5031016;28;20504;-62
2023/06/22 10:55:19;;;;;;;10.68;6.32;;;;;;;12.38;100.00;100450.81;5041366;28;20055;-61
2023/06/22 10:57:52;;;;;;;10.95;5.80;;;;;;;12.35;100.00;100450.84;5031764;28;20056;-60
2023/06/22 11:00:23;;;;;;;12.27;5.72;;;;;;;12.29;100.00;100450.97;5041617;28;20040;-63
2023/06/22 11:02:58;;;;;;;14.27;5.85;;;;;;;12.17;100.00;100454.72;5031176;28;20775;-61
2023/06/22 11:05:30;;;;;;;8.80;4.97;;;;;;;12.06;100.00;100452.31;5041392;28;20060;-60
2023/06/22 11:08:06;;;;;;;7.80;5.32;;;;;;;11.98;100.00;100461.19;5030579;28;20056;-62
2023/06/22 11:10:38;;;;;;;8.32;4.93;;;;;;;11.86;100.00;100463.16;5030421;28;20056;-62
2023/06/22 11:13:09;;;;;;;8.13;5.32;;;;;;;11.77;100.00;100451.97;5040938;28;20148;-62
2023/06/22 11:15:42;;;;;;;8.55;4.93;;;;;;;11.71;100.00;100457.31;5028591;28;20091;-62
2023/06/22 11:18:13;;;;;;;9.30;5.13;;;;;;;11.66;100.00;100455.63;5040182;28;20048;-63
2023/06/22 11:20:45;;;;;;;10.05;4.53;;;;;;;11.57;100.00;100455.78;5029999;28;20048;-59
2023/06/22 11:23:18;;;;;;;11.40;4.50;;;;;;;11.51;100.00;100468.13;5038197;28;20048;-61
2023/06/22 11:25:50;;;;;;;7.47;4.50;;;;;;;11.27;100.00;100419.69;5029968;28;20048;-61
2023/06/22 11:28:22;;;;;;;17.35;5.30;;;;;;;11.49;100.00;100457.69;5040571;28;20124;-60
2023/06/22 11:31:04;;;;;;;31.75;5.80;;;;;;;11.59;100.00;100463.63;5031445;28;20060;-61
2023/06/22 11:33:55;;;;;;;28.77;4.40;;;;;;;11.58;100.00;100461.88;5031281;28;20049;-62
2023/06/22 11:36:29;;;;;;;18.58;4.60;;;;;;;11.48;100.00;100463.78;5039870;28;20045;-60
2023/06/22 11:39:02;;;;;;;23.83;4.05;;;;;;;11.47;100.00;100464.69;5030622;28;20048;-59
2023/06/22 11:41:33;;;;;;;23.70;4.78;;;;;;;11.49;100.00;100478.63;5041290;28;20742;-61
2023/06/22 11:44:08;;;;;;;22.23;4.28;;;;;;;11.41;100.00;100470.03;5031042;28;20044;-60